Time;durP1;ratioP1;P1;durP2;ratioP2;P2;SDS_P1;SDS_P2;PMS_P1;PMS_P2;Temp;Humidity;BMP_temperature;BMP_pressure;BME280_temperature;BME280_humidity;BME280_pressure;Samples;Min_cycle;Max_cycle;Signal;HPM_P1;HPM_P2
2023/07/26 00:00:18;;;;;;;7.07;2.08;;;;;;;15.28;100.00;99530.16;7389890;19;20018;-79
2023/07/26 00:02:45;;;;;;;0.85;0.85;;;;;;;15.00;100.00;99528.22;7391430;19;20367;-79
2023/07/26 00:05:11;;;;;;;17.17;1.05;;;;;;;13.86;100.00;99533.31;7387549;19;20038;-79
2023/07/26 00:07:37;;;;;;;1.42;0.60;;;;;;;15.63;100.00;99528.28;7387416;19;20044;-79
2023/07/26 00:10:04;;;;;;;4.30;0.95;;;;;;;15.77;100.00;99529.97;7389560;19;20115;-79
2023/07/26 00:12:30;;;;;;;1.80;0.65;;;;;;;15.84;100.00;99531.47;7387139;19;20094;-79
2023/07/26 00:14:56;;;;;;;11.02;0.70;;;;;;;15.78;100.00;99537.13;7386296;19;20018;-79
2023/07/26 00:17:22;;;;;;;0.75;0.75;;;;;;;16.42;100.00;99529.25;7387732;19;20028;-80
2023/07/26 00:19:48;;;;;;;1.60;0.43;;;;;;;18.21;100.00;99529.50;7394078;19;20019;-79
2023/07/26 00:22:15;;;;;;;4.03;0.98;;;;;;;16.45;100.00;99536.66;7390796;19;20018;-79
2023/07/26 00:24:41;;;;;;;2.88;1.38;;;;;;;16.65;100.00;99537.00;7391028;19;20011;-80
2023/07/26 00:27:07;;;;;;;2.17;0.52;;;;;;;15.62;100.00;99537.19;7393413;19;20010;-80
2023/07/26 00:29:33;;;;;;;0.38;0.38;;;;;;;15.83;100.00;99541.19;7390840;19;20022;-79
2023/07/26 00:32:00;;;;;;;4.32;0.77;;;;;;;15.74;100.00;99538.69;7392129;19;20381;-80
2023/07/26 00:34:26;;;;;;;0.20;0.20;;;;;;;16.56;100.00;99528.94;7392635;19;20085;-79
2023/07/26 00:36:53;;;;;;;4.18;0.77;;;;;;;17.10;100.00;99530.94;7391157;19;20015;-79
2023/07/26 00:39:21;;;;;;;0.55;0.40;;;;;;;17.99;100.00;99527.78;7391842;19;20035;-79
2023/07/26 00:41:47;;;;;;;0.75;0.75;;;;;;;17.16;100.00;99528.81;7390398;19;20026;-79
2023/07/26 00:44:13;;;;;;;1.08;0.17;;;;;;;17.49;100.00;99525.63;7394082;19;20085;-79
2023/07/26 00:46:39;;;;;;;0.40;0.38;;;;;;;19.15;100.00;99514.53;7392325;19;20011;-79
2023/07/26 00:49:07;;;;;;;2.28;0.93;;;;;;;19.19;100.00;99514.94;7390270;19;20007;-79
2023/07/26 00:51:35;;;;;;;0.50;0.50;;;;;;;19.99;100.00;99496.59;7393407;19;20022;-79
2023/07/26 00:54:03;;;;;;;1.08;0.73;;;;;;;18.37;100.00;99497.44;7392609;19;20344;-79
2023/07/26 00:56:30;;;;;;;0.57;0.57;;;;;;;18.41;100.00;99500.72;7398002;19;20022;-80
2023/07/26 00:58:56;;;;;;;1.55;0.73;;;;;;;19.05;100.00;99496.50;7396470;19;20010;-80
2023/07/26 01:01:22;;;;;;;1.95;1.38;;;;;;;17.91;100.00;99499.44;7401551;19;20027;-79
2023/07/26 01:03:48;;;;;;;0.47;0.47;;;;;;;17.16;100.00;99489.44;7399641;19;20048;-80
2023/07/26 01:06:36;;;;;;;2.75;1.00;;;;;;;17.71;100.00;99494.38;7398757;19;20018;-80
2023/07/26 01:09:07;;;;;;;2.65;0.55;;;;;;;22.06;100.00;99489.13;7396739;19;20512;-80
2023/07/26 01:11:43;;;;;;;0.32;0.32;;;;;;;18.00;100.00;99487.78;7398031;19;20010;-80
2023/07/26 01:14:27;;;;;;;0.40;0.40;;;;;;;17.58;100.00;99491.50;7400117;19;20288;-80
2023/07/26 01:16:54;;;;;;;1.05;0.40;;;;;;;17.10;100.00;99491.53;7396270;19;20022;-80
2023/07/26 01:19:21;;;;;;;1.52;0.52;;;;;;;17.02;100.00;99493.44;7396530;19;20038;-80
2023/07/26 01:21:47;;;;;;;1.52;1.00;;;;;;;14.50;100.00;99507.91;7395070;19;20019;-79
2023/07/26 01:24:13;;;;;;;2.65;1.20;;;;;;;13.77;100.00;99505.56;7395135;19;20239;-80
2023/07/26 01:26:40;;;;;;;2.72;0.95;;;;;;;13.96;100.00;99503.81;7394288;19;20598;-80
2023/07/26 01:29:06;;;;;;;2.38;0.90;;;;;;;14.39;100.00;99502.31;7396667;19;20029;-80
2023/07/26 01:31:32;;;;;;;0.52;0.52;;;;;;;13.90;100.00;99497.44;7394830;19;20023;-80
2023/07/26 01:34:01;;;;;;;5.88;1.30;;;;;;;12.75;100.00;99494.47;7396362;19;20456;-80
2023/07/26 01:36:29;;;;;;;0.30;0.30;;;;;;;12.13;100.00;99495.25;7394594;19;20011;-80
2023/07/26 01:38:57;;;;;;;1.20;0.85;;;;;;;12.54;100.00;99495.09;7397106;19;20501;-80
2023/07/26 01:41:23;;;;;;;0.50;0.50;;;;;;;13.13;100.00;99506.34;7394683;19;20014;-80
2023/07/26 01:43:49;;;;;;;3.28;0.85;;;;;;;13.40;100.00;99512.06;7397667;19;20688;-80
2023/07/26 01:46:16;;;;;;;2.60;0.85;;;;;;;13.52;100.00;99504.47;7393573;19;20029;-80
2023/07/26 01:48:42;;;;;;;7.63;1.20;;;;;;;14.06;100.00;99505.06;7395709;19;20014;-80
2023/07/26 01:51:08;;;;;;;1.15;0.50;;;;;;;14.85;100.00;99499.72;7392025;19;20015;-80
2023/07/26 01:53:34;;;;;;;2.38;0.63;;;;;;;15.93;100.00;99500.25;7393880;19;20014;-80
2023/07/26 01:56:01;;;;;;;1.02;0.75;;;;;;;15.43;100.00;99494.13;7392529;19;20018;-80
2023/07/26 01:58:27;;;;;;;0.73;0.38;;;;;;;14.85;100.00;99493.34;7393876;19;20479;-81
2023/07/26 02:00:53;;;;;;;0.52;0.52;;;;;;;15.33;100.00;99488.06;7393157;19;20010;-81
2023/07/26 02:03:22;;;;;;;3.45;1.15;;;;;;;15.79;100.00;99485.28;7393623;19;20365;-81
2023/07/26 02:05:48;;;;;;;0.50;0.43;;;;;;;15.05;100.00;99490.97;7393379;19;20025;-81
2023/07/26 02:08:17;;;;;;;1.30;0.73;;;;;;;15.05;100.00;99490.97;7393146;19;20025;-80
2023/07/26 02:10:43;;;;;;;2.58;0.80;;;;;;;15.67;100.00;99483.06;7391425;19;20021;-79
2023/07/26 02:13:09;;;;;;;0.63;0.63;;;;;;;17.04;100.00;99476.78;7391207;19;20022;-80
2023/07/26 02:15:35;;;;;;;0.55;0.55;;;;;;;15.68;100.00;99485.34;7392607;19;20521;-80
2023/07/26 02:18:02;;;;;;;1.58;1.10;;;;;;;16.01;100.00;99486.41;7392319;19;20399;-80
2023/07/26 02:20:30;;;;;;;2.28;1.40;;;;;;;16.48;100.00;99479.41;7396514;19;20378;-80
2023/07/26 02:22:57;;;;;;;3.30;1.17;;;;;;;17.56;100.00;99484.88;7391619;19;20014;-80
2023/07/26 02:25:23;;;;;;;2.38;1.25;;;;;;;16.35;100.00;99485.63;7393411;19;20014;-80
2023/07/26 02:27:50;;;;;;;2.17;0.60;;;;;;;21.86;88.96;99481.50;7392398;19;20018;-81
2023/07/26 02:30:16;;;;;;;4.25;1.08;;;;;;;20.62;100.00;99481.19;7390647;19;20031;-80
2023/07/26 02:32:43;;;;;;;0.65;0.40;;;;;;;20.74;99.50;99483.16;7390778;19;20018;-80
2023/07/26 02:35:09;;;;;;;2.22;1.13;;;;;;;21.07;96.97;99476.59;7390103;19;20006;-80
2023/07/26 02:37:35;;;;;;;1.45;0.75;;;;;;;19.72;100.00;99475.34;7390911;19;20468;-80
2023/07/26 02:40:02;;;;;;;0.50;0.45;;;;;;;19.25;100.00;99476.06;7394098;19;20018;-81
2023/07/26 02:42:29;;;;;;;0.50;0.32;;;;;;;23.72;85.48;99459.75;7391093;19;20369;-81
2023/07/26 02:44:55;;;;;;;0.40;0.35;;;;;;;14.12;100.00;99478.59;7396300;19;20027;-81
2023/07/26 02:47:21;;;;;;;1.90;0.70;;;;;;;13.40;100.00;99488.94;7390596;19;20496;-81
2023/07/26 02:49:48;;;;;;;1.02;0.38;;;;;;;13.03;100.00;99477.81;7393718;19;20702;-80
2023/07/26 02:52:14;;;;;;;2.17;0.38;;;;;;;11.59;100.00;99481.53;7392049;19;20055;-81
2023/07/26 02:54:40;;;;;;;1.60;0.47;;;;;;;11.58;100.00;99480.78;7392861;19;20014;-81
2023/07/26 02:57:06;;;;;;;1.13;0.75;;;;;;;11.64;100.00;99475.25;7392889;19;20018;-81
2023/07/26 02:59:32;;;;;;;8.32;1.48;;;;;;;12.09;100.00;99477.97;7391807;19;20014;-80
2023/07/26 03:01:58;;;;;;;1.65;0.68;;;;;;;12.13;100.00;99463.78;7392091;19;20022;-80
2023/07/26 03:04:24;;;;;;;0.73;0.68;;;;;;;12.01;100.00;99471.31;7391171;19;20018;-80
2023/07/26 03:06:51;;;;;;;0.70;0.70;;;;;;;11.89;100.00;99461.31;7390299;19;20513;-80
2023/07/26 03:09:17;;;;;;;2.25;1.33;;;;;;;12.38;100.00;99462.22;7389555;19;20368;-80
2023/07/26 03:11:44;;;;;;;3.10;1.30;;;;;;;11.62;100.00;99459.00;7392238;19;20018;-79
2023/07/26 03:14:10;;;;;;;1.50;0.73;;;;;;;12.11;100.00;99464.28;7395588;19;20018;-79
2023/07/26 03:16:37;;;;;;;3.05;1.00;;;;;;;11.77;100.00;99458.91;7388056;19;20022;-80
2023/07/26 03:19:04;;;;;;;1.95;0.50;;;;;;;11.61;100.00;99465.81;7386776;19;20015;-79
2023/07/26 03:21:30;;;;;;;0.60;0.55;;;;;;;11.88;100.00;99450.66;7386567;19;20503;-80
2023/07/26 03:23:56;;;;;;;1.50;0.40;;;;;;;11.62;100.00;99449.88;7391505;19;20056;-80
2023/07/26 03:26:22;;;;;;;0.73;0.50;;;;;;;11.87;100.00;99449.88;7385623;19;20325;-80
2023/07/26 03:28:49;;;;;;;2.35;0.95;;;;;;;11.09;100.00;99453.84;7384242;19;20014;-80
2023/07/26 03:31:15;;;;;;;1.15;0.90;;;;;;;10.86;100.00;99454.06;7386928;19;20021;-80
2023/07/26 03:33:41;;;;;;;1.50;0.82;;;;;;;10.58;100.00;99460.06;7393377;19;20015;-80
2023/07/26 03:36:07;;;;;;;3.92;1.00;;;;;;;10.92;100.00;99449.34;7388751;19;20010;-80
2023/07/26 03:38:33;;;;;;;1.80;0.80;;;;;;;11.27;100.00;99452.81;7388192;19;20037;-80
2023/07/26 03:40:59;;;;;;;1.50;0.90;;;;;;;11.21;100.00;99451.97;7390789;19;20018;-80
2023/07/26 03:43:27;;;;;;;0.73;0.73;;;;;;;10.87;100.00;99447.25;7393144;19;20024;-80
2023/07/26 03:45:55;;;;;;;0.63;0.63;;;;;;;11.19;100.00;99451.69;7390382;19;20018;-80
2023/07/26 03:48:21;;;;;;;1.38;0.77;;;;;;;11.42;100.00;99453.47;7388715;19;20014;-80
2023/07/26 03:50:49;;;;;;;0.70;0.68;;;;;;;11.59;100.00;99450.84;7388269;19;20014;-80
2023/07/26 03:53:15;;;;;;;2.58;0.40;;;;;;;12.07;100.00;99451.81;7391541;19;20053;-80
2023/07/26 03:55:41;;;;;;;0.85;0.52;;;;;;;12.11;100.00;99447.53;7390203;19;20018;-80
2023/07/26 03:58:07;;;;;;;2.17;1.15;;;;;;;11.52;100.00;99449.25;7388635;19;20011;-80
2023/07/26 04:00:33;;;;;;;6.03;0.70;;;;;;;11.97;100.00;99448.47;7390150;19;20403;-81
2023/07/26 04:02:59;;;;;;;2.05;0.50;;;;;;;12.72;100.00;99450.75;7392772;19;20017;-80
2023/07/26 04:05:26;;;;;;;1.38;0.50;;;;;;;11.89;100.00;99450.16;7391640;19;20035;-79
2023/07/26 04:07:52;;;;;;;0.68;0.40;;;;;;;12.50;100.00;99452.63;7388753;19;20026;-79
2023/07/26 04:10:18;;;;;;;0.40;0.40;;;;;;;12.32;100.00;99451.00;7389737;19;20019;-80
2023/07/26 04:12:44;;;;;;;1.85;0.98;;;;;;;11.03;100.00;99455.03;7388871;19;20019;-80
2023/07/26 04:15:11;;;;;;;0.60;0.60;;;;;;;11.71;100.00;99447.72;7386973;19;20026;-80
2023/07/26 04:17:37;;;;;;;2.67;0.65;;;;;;;12.10;100.00;99442.47;7388438;19;20078;-80
2023/07/26 04:20:04;;;;;;;3.63;1.00;;;;;;;11.92;100.00;99448.41;7393458;19;20082;-80
2023/07/26 04:22:30;;;;;;;1.10;0.88;;;;;;;12.01;100.00;99443.41;7389831;19;20014;-80
2023/07/26 04:24:57;;;;;;;1.85;0.95;;;;;;;12.44;100.00;99441.44;7390922;19;20019;-80
2023/07/26 04:27:24;;;;;;;0.82;0.50;;;;;;;11.99;100.00;99443.16;7388157;19;20014;-80
2023/07/26 04:29:50;;;;;;;0.50;0.50;;;;;;;12.54;100.00;99447.59;7388529;19;20544;-80
2023/07/26 04:32:16;;;;;;;1.67;0.52;;;;;;;12.21;100.00;99441.78;7396292;19;20018;-79
2023/07/26 04:34:42;;;;;;;1.02;0.55;;;;;;;13.31;100.00;99450.78;7396287;19;20019;-79
2023/07/26 04:37:08;;;;;;;0.77;0.50;;;;;;;12.44;100.00;99441.44;7394533;19;20018;-80
2023/07/26 04:39:34;;;;;;;0.40;0.40;;;;;;;12.17;100.00;99456.72;7396790;19;20376;-80
2023/07/26 04:42:00;;;;;;;1.67;0.70;;;;;;;12.28;100.00;99455.28;7398100;19;20026;-80
2023/07/26 04:44:26;;;;;;;1.95;0.73;;;;;;;12.23;100.00;99458.78;7399243;19;20517;-79
2023/07/26 04:46:52;;;;;;;1.17;0.50;;;;;;;11.77;100.00;99456.13;7395933;19;20033;-80
2023/07/26 04:49:19;;;;;;;0.93;0.30;;;;;;;12.12;100.00;99457.47;7396642;19;20039;-79
2023/07/26 04:51:45;;;;;;;2.97;1.05;;;;;;;12.09;100.00;99452.84;7395580;19;20054;-80
2023/07/26 04:54:11;;;;;;;2.13;0.95;;;;;;;12.23;100.00;99459.56;7400211;19;20346;-80
2023/07/26 04:56:37;;;;;;;0.90;0.20;;;;;;;13.31;100.00;99455.59;7396009;19;20369;-79
2023/07/26 04:59:03;;;;;;;1.30;1.20;;;;;;;12.61;100.00;99456.25;7397614;19;20044;-80
2023/07/26 05:01:29;;;;;;;0.98;0.80;;;;;;;12.19;100.00;99448.63;7395792;19;20018;-80
2023/07/26 05:03:55;;;;;;;0.57;0.57;;;;;;;12.31;100.00;99459.88;7399115;19;20010;-79
2023/07/26 05:06:24;;;;;;;2.65;0.50;;;;;;;12.48;100.00;99457.94;7395405;19;20018;-80
2023/07/26 05:08:51;;;;;;;2.08;0.45;;;;;;;12.56;100.00;99459.78;7392755;19;20398;-80
2023/07/26 05:11:20;;;;;;;2.78;0.80;;;;;;;12.53;100.00;99465.59;7393563;19;20039;-80
2023/07/26 05:13:47;;;;;;;0.32;0.25;;;;;;;13.21;100.00;99460.63;7397736;19;20038;-79
2023/07/26 05:16:13;;;;;;;0.40;0.40;;;;;;;12.81;100.00;99452.56;7394253;19;20026;-79
2023/07/26 05:18:39;;;;;;;0.13;0.13;;;;;;;14.04;100.00;99449.59;7395358;19;20006;-79
2023/07/26 05:21:06;;;;;;;2.65;0.75;;;;;;;13.86;100.00;99454.94;7395192;19;20027;-79
2023/07/26 05:23:32;;;;;;;1.35;0.98;;;;;;;14.09;100.00;99450.88;7399367;19;20050;-80
2023/07/26 05:25:58;;;;;;;0.80;0.28;;;;;;;13.88;100.00;99455.94;7395803;19;20049;-80
2023/07/26 05:28:24;;;;;;;2.58;1.45;;;;;;;13.40;100.00;99453.34;7394592;19;20030;-79
2023/07/26 05:30:50;;;;;;;7.90;1.02;;;;;;;13.30;100.00;99459.63;7393652;19;20480;-79
2023/07/26 05:33:16;;;;;;;2.30;0.80;;;;;;;14.03;100.00;99455.72;7394755;19;20029;-80
2023/07/26 05:35:42;;;;;;;1.35;0.80;;;;;;;15.34;100.00;99455.91;7393156;19;20022;-80
2023/07/26 05:38:08;;;;;;;1.83;0.65;;;;;;;15.11;100.00;99449.66;7393659;19;20026;-79
2023/07/26 05:40:34;;;;;;;2.60;1.20;;;;;;;13.99;100.00;99458.00;7394984;19;20041;-80
2023/07/26 05:43:01;;;;;;;0.30;0.30;;;;;;;13.33;100.00;99451.03;7396470;19;20018;-80
2023/07/26 05:45:27;;;;;;;0.65;0.45;;;;;;;13.60;100.00;99463.53;7394705;19;20018;-79
2023/07/26 05:47:53;;;;;;;0.95;0.90;;;;;;;13.67;100.00;99471.44;7394475;19;20104;-79
2023/07/26 05:50:20;;;;;;;1.00;0.40;;;;;;;14.75;100.00;99473.22;7397934;19;20010;-79
2023/07/26 05:52:46;;;;;;;2.70;0.60;;;;;;;13.72;100.00;99472.72;7392605;19;20483;-79
2023/07/26 05:55:12;;;;;;;3.17;0.45;;;;;;;13.86;100.00;99464.09;7391822;19;20022;-79
2023/07/26 05:57:38;;;;;;;5.80;1.77;;;;;;;13.68;100.00;99468.16;7393279;19;20484;-80
2023/07/26 06:00:05;;;;;;;3.22;0.93;;;;;;;13.83;100.00;99467.91;7393281;19;20026;-79
2023/07/26 06:02:38;;;;;;;2.28;1.17;;;;;;;13.91;100.00;99473.75;7393019;19;20018;-80
2023/07/26 06:05:05;;;;;;;1.48;0.90;;;;;;;13.83;100.00;99475.53;7393235;19;20037;-80
2023/07/26 06:07:31;;;;;;;4.20;0.82;;;;;;;13.75;100.00;99477.31;7392591;19;20040;-79
2023/07/26 06:09:58;;;;;;;5.20;1.08;;;;;;;13.87;100.00;99467.66;7392938;19;20013;-79
2023/07/26 06:12:24;;;;;;;0.55;0.50;;;;;;;14.14;100.00;99469.72;7394022;19;20015;-79
2023/07/26 06:14:50;;;;;;;1.10;0.43;;;;;;;14.37;100.00;99466.41;7394955;19;20362;-79
2023/07/26 06:17:16;;;;;;;1.65;1.05;;;;;;;14.78;100.00;99466.59;7393442;19;20022;-79
2023/07/26 06:19:42;;;;;;;2.35;1.35;;;;;;;14.50;100.00;99474.28;7397778;19;20018;-79
2023/07/26 06:22:09;;;;;;;1.80;0.40;;;;;;;14.50;100.00;99468.69;7394234;19;20010;-79
2023/07/26 06:24:36;;;;;;;2.42;0.82;;;;;;;14.89;100.00;99463.75;7395845;19;20038;-79
2023/07/26 06:27:04;;;;;;;0.50;0.50;;;;;;;15.16;100.00;99462.88;7392273;19;20065;-79
2023/07/26 06:29:30;;;;;;;0.30;0.30;;;;;;;15.30;100.00;99455.44;7391639;19;20018;-79
2023/07/26 06:31:56;;;;;;;1.35;0.30;;;;;;;15.92;100.00;99453.78;7395354;19;20014;-79
2023/07/26 06:34:23;;;;;;;3.63;0.73;;;;;;;15.28;100.00;99452.38;7398374;19;20010;-79
2023/07/26 06:36:49;;;;;;;1.15;0.22;;;;;;;15.83;100.00;99452.06;7391639;19;20389;-79
2023/07/26 06:39:15;;;;;;;4.20;0.40;;;;;;;15.49;100.00;99447.19;7392414;19;20031;-79
2023/07/26 06:41:42;;;;;;;1.70;0.47;;;;;;;15.96;100.00;99448.66;7391680;19;20017;-80
2023/07/26 06:44:08;;;;;;;2.28;1.00;;;;;;;15.72;100.00;99451.41;7394995;19;20022;-79
2023/07/26 06:46:34;;;;;;;5.25;1.13;;;;;;;15.74;100.00;99448.84;7397392;19;20026;-79
2023/07/26 06:49:01;;;;;;;1.85;0.47;;;;;;;16.08;100.00;99444.47;7391409;19;20021;-79
2023/07/26 06:51:28;;;;;;;9.50;0.52;;;;;;;16.29;100.00;99442.75;7392977;19;20098;-79
2023/07/26 06:53:54;;;;;;;0.45;0.45;;;;;;;16.99;100.00;99441.03;7390883;19;20015;-79
2023/07/26 06:56:20;;;;;;;1.73;0.55;;;;;;;16.63;100.00;99443.25;7391912;19;20081;-79
2023/07/26 06:58:46;;;;;;;3.75;0.73;;;;;;;17.02;100.00;99440.72;7393756;19;20030;-80
2023/07/26 07:01:17;;;;;;;1.55;0.32;;;;;;;17.21;100.00;99446.41;7392851;19;20026;-80
2023/07/26 07:03:43;;;;;;;0.57;0.50;;;;;;;27.10;100.00;99435.59;7391967;19;20015;-79
2023/07/26 07:06:09;;;;;;;6.45;1.83;;;;;;;24.83;100.00;99438.88;7392952;19;20028;-80
2023/07/26 07:08:37;;;;;;;1.27;0.20;;;;;;;29.77;89.98;99422.94;7389685;19;20018;-79
2023/07/26 07:11:03;;;;;;;3.13;0.55;;;;;;;22.19;100.00;99445.66;7389652;19;20014;-80
2023/07/26 07:13:29;;;;;;;3.35;0.75;;;;;;;21.25;100.00;99445.72;7388159;19;20018;-80
2023/07/26 07:15:55;;;;;;;1.65;0.43;;;;;;;21.12;100.00;99450.19;7391046;19;20015;-80
2023/07/26 07:18:21;;;;;;;2.20;0.35;;;;;;;20.89;100.00;99451.34;7388777;19;20342;-80
2023/07/26 07:20:55;;;;;;;0.60;0.40;;;;;;;21.41;100.00;99450.91;7391699;19;20014;-80
2023/07/26 07:23:21;;;;;;;0.50;0.30;;;;;;;21.94;100.00;99448.25;7390494;19;20030;-79
2023/07/26 07:25:47;;;;;;;0.55;0.40;;;;;;;22.20;100.00;99442.22;7392130;19;20468;-79
2023/07/26 07:28:14;;;;;;;2.83;0.85;;;;;;;19.13;100.00;99446.56;7388987;19;20041;-80
2023/07/26 07:30:40;;;;;;;0.28;0.20;;;;;;;18.14;100.00;99447.09;7389152;19;20073;-80
2023/07/26 07:33:06;;;;;;;2.15;0.43;;;;;;;17.82;100.00;99449.13;7392712;19;20018;-80
2023/07/26 07:35:32;;;;;;;6.32;0.82;;;;;;;17.73;100.00;99435.47;7390157;19;20018;-80
2023/07/26 07:37:58;;;;;;;1.55;0.73;;;;;;;17.45;100.00;99437.88;7387267;19;20026;-79
2023/07/26 07:40:24;;;;;;;1.38;0.40;;;;;;;16.97;100.00;99432.38;7391886;19;20054;-79
2023/07/26 07:42:50;;;;;;;1.65;0.47;;;;;;;17.30;100.00;99441.13;7390184;19;20418;-80
2023/07/26 07:45:17;;;;;;;1.05;0.38;;;;;;;17.37;100.00;99437.72;7396099;19;20503;-80
2023/07/26 07:47:43;;;;;;;1.38;0.40;;;;;;;17.42;100.00;99444.56;7388863;19;20031;-80
2023/07/26 07:50:09;;;;;;;8.65;0.52;;;;;;;17.10;100.00;99440.91;7391400;19;20031;-80
2023/07/26 07:52:35;;;;;;;3.13;0.60;;;;;;;17.08;100.00;99443.50;7390734;19;20024;-79
2023/07/26 07:55:01;;;;;;;1.38;0.45;;;;;;;17.32;100.00;99441.38;7390455;19;20034;-79
2023/07/26 07:57:27;;;;;;;1.55;0.28;;;;;;;17.02;100.00;99445.63;7393131;19;20011;-79
2023/07/26 07:59:54;;;;;;;10.15;1.13;;;;;;;17.91;100.00;99448.72;7391329;19;20682;-79
2023/07/26 08:02:20;;;;;;;0.63;0.30;;;;;;;17.88;100.00;99452.63;7391003;19;20028;-80
2023/07/26 08:04:46;;;;;;;1.58;0.30;;;;;;;18.21;100.00;99439.31;7392326;19;20048;-79
2023/07/26 08:07:12;;;;;;;2.30;0.60;;;;;;;17.59;100.00;99441.53;7396280;19;20468;-80
2023/07/26 08:09:41;;;;;;;2.67;0.57;;;;;;;17.68;100.00;99439.09;7397667;19;20026;-80
2023/07/26 08:12:07;;;;;;;2.67;1.10;;;;;;;17.56;100.00;99442.63;7397698;19;20015;-79
2023/07/26 08:14:34;;;;;;;4.03;1.02;;;;;;;17.56;100.00;99443.41;7398069;19;20010;-80
2023/07/26 08:17:00;;;;;;;1.05;0.57;;;;;;;17.50;100.00;99442.69;7397880;19;20017;-79
2023/07/26 08:19:26;;;;;;;1.85;0.70;;;;;;;17.71;100.00;99440.88;7400138;19;20018;-79
2023/07/26 08:21:53;;;;;;;3.83;0.95;;;;;;;18.00;100.00;99437.06;7401903;19;20042;-80
2023/07/26 08:24:19;;;;;;;1.05;0.50;;;;;;;19.39;100.00;99434.47;7398310;19;20018;-79
2023/07/26 08:26:45;;;;;;;2.00;0.38;;;;;;;19.02;100.00;99432.66;7396951;19;20015;-80
2023/07/26 08:29:11;;;;;;;0.88;0.65;;;;;;;18.93;100.00;99431.03;7393514;19;20497;-80
2023/07/26 08:31:38;;;;;;;0.93;0.60;;;;;;;18.82;100.00;99436.13;7400085;19;20018;-80
2023/07/26 08:34:04;;;;;;;0.30;0.30;;;;;;;22.46;100.00;99430.50;7397738;19;20493;-80
2023/07/26 08:36:30;;;;;;;1.67;0.25;;;;;;;22.31;100.00;99429.75;7396878;19;20026;-79
2023/07/26 08:38:56;;;;;;;1.65;0.50;;;;;;;23.15;100.00;99428.34;7394226;19;20014;-79
2023/07/26 08:41:23;;;;;;;3.20;0.70;;;;;;;24.02;100.00;99431.88;7397424;19;20010;-80
2023/07/26 08:43:54;;;;;;;4.43;0.85;;;;;;;23.62;100.00;99434.03;7399071;19;20015;-80
2023/07/26 08:46:20;;;;;;;1.30;0.45;;;;;;;20.68;100.00;99422.34;7398117;19;20014;-80
2023/07/26 08:48:47;;;;;;;2.38;0.65;;;;;;;21.65;100.00;99418.50;7394620;19;20024;-80
2023/07/26 08:51:14;;;;;;;5.65;1.05;;;;;;;21.20;100.00;99415.50;7392793;19;20022;-80
2023/07/26 08:53:44;;;;;;;3.50;0.65;;;;;;;20.87;100.00;99409.47;7391548;19;20181;-80
2023/07/26 08:56:12;;;;;;;4.18;0.80;;;;;;;20.15;100.00;99407.75;7392428;19;20483;-80
2023/07/26 08:58:39;;;;;;;1.48;0.20;;;;;;;20.12;100.00;99400.41;7391033;19;20089;-80
2023/07/26 09:01:05;;;;;;;0.93;0.47;;;;;;;20.39;100.00;99404.59;7395388;19;20045;-80
2023/07/26 09:03:32;;;;;;;2.13;0.85;;;;;;;19.89;100.00;99399.41;7397205;19;20010;-80
2023/07/26 09:06:06;;;;;;;4.53;0.68;;;;;;;19.96;100.00;99396.69;7394215;19;20417;-80
2023/07/26 09:08:32;;;;;;;0.77;0.60;;;;;;;20.11;100.00;99394.00;7389815;19;20059;-80
2023/07/26 09:11:01;;;;;;;7.85;0.90;;;;;;;20.69;100.00;99385.00;7393742;19;20011;-80
2023/07/26 09:13:27;;;;;;;2.53;0.63;;;;;;;21.19;100.00;99382.81;7397813;19;20014;-80
2023/07/26 09:15:53;;;;;;;2.90;0.57;;;;;;;21.91;100.00;99387.00;7392068;19;20480;-80
2023/07/26 09:18:20;;;;;;;0.55;0.30;;;;;;;21.77;100.00;99382.78;7394272;19;20034;-81
2023/07/26 09:20:46;;;;;;;0.40;0.10;;;;;;;20.94;100.00;99383.25;7394742;19;20018;-80
2023/07/26 09:23:13;;;;;;;1.67;1.02;;;;;;;21.98;100.00;99383.44;7394443;19;20022;-80
2023/07/26 09:25:43;;;;;;;1.10;0.47;;;;;;;22.45;100.00;99386.44;7394231;19;20011;-81
2023/07/26 09:28:10;;;;;;;1.38;0.50;;;;;;;21.34;100.00;99385.69;7393383;19;20461;-80
2023/07/26 09:30:38;;;;;;;5.82;0.52;;;;;;;21.11;100.00;99383.53;7392107;19;20011;-81
2023/07/26 09:33:07;;;;;;;2.45;0.93;;;;;;;21.30;100.00;99383.25;7393390;19;20018;-81
2023/07/26 09:35:47;;;;;;;3.63;0.90;;;;;;;21.30;100.00;99379.66;7393195;19;20034;-81
2023/07/26 09:38:18;;;;;;;;;;;;;;;21.68;100.00;99375.59;7393448;19;20058;-81
2023/07/26 09:40:44;;;;;;;1.90;0.40;;;;;;;21.53;100.00;99374.78;7391645;19;20318;-81
2023/07/26 09:43:10;;;;;;;2.65;1.40;;;;;;;21.84;100.00;99376.41;7396352;19;20674;-81
2023/07/26 09:45:38;;;;;;;1.92;0.82;;;;;;;22.84;100.00;99375.78;7391919;19;20025;-81
2023/07/26 09:48:14;;;;;;;3.00;0.60;;;;;;;23.35;100.00;99365.56;7393404;19;20011;-81
2023/07/26 09:50:43;;;;;;;0.82;0.20;;;;;;;23.60;100.00;99371.31;7393899;19;20019;-81
2023/07/26 09:53:11;;;;;;;0.40;0.30;;;;;;;23.78;100.00;99372.16;7393181;19;20022;-81
2023/07/26 09:55:37;;;;;;;2.78;0.68;;;;;;;23.61;100.00;99360.69;7393369;19;20007;-80
2023/07/26 09:58:04;;;;;;;1.48;0.45;;;;;;;23.05;100.00;99367.75;7394114;19;20018;-81
2023/07/26 10:00:31;;;;;;;2.65;0.85;;;;;;;22.45;100.00;99377.94;7395380;19;20018;-81
2023/07/26 10:03:08;;;;;;;5.32;0.80;;;;;;;23.10;100.00;99372.47;7395740;19;20014;-81
2023/07/26 10:05:41;;;;;;;0.15;0.13;;;;;;;23.29;100.00;99367.09;7393178;19;20019;-80
2023/07/26 10:08:09;;;;;;;2.70;0.80;;;;;;;24.34;100.00;99365.66;7391390;19;20073;-80
2023/07/26 10:10:35;;;;;;;2.38;0.57;;;;;;;22.82;100.00;99364.25;7392136;19;20480;-80
2023/07/26 10:13:04;;;;;;;1.33;0.55;;;;;;;23.20;100.00;99362.00;7393110;19;20509;-80
2023/07/26 10:15:32;;;;;;;6.10;0.50;;;;;;;23.48;100.00;99356.03;7390998;19;20035;-80
2023/07/26 10:18:00;;;;;;;0.63;0.47;;;;;;;23.45;99.44;99362.88;7390269;19;20381;-80
2023/07/26 10:20:26;;;;;;;1.27;0.38;;;;;;;23.17;100.00;99372.44;7398069;19;20015;-80
2023/07/26 10:22:54;;;;;;;2.30;0.60;;;;;;;23.55;100.00;99360.16;7393151;19;20046;-80
2023/07/26 10:25:21;;;;;;;2.97;0.50;;;;;;;23.96;100.00;99360.25;7394500;19;20514;-79
2023/07/26 10:27:47;;;;;;;3.63;0.32;;;;;;;23.97;99.97;99356.06;7389617;19;20015;-80
2023/07/26 10:30:14;;;;;;;1.90;0.40;;;;;;;23.30;99.81;99345.88;7390529;19;20031;-80
2023/07/26 10:32:48;;;;;;;2.10;0.52;;;;;;;24.35;96.57;99355.78;7394764;19;20120;-79
2023/07/26 10:35:34;;;;;;;1.75;0.25;;;;;;;24.65;92.21;99349.00;7392803;19;20018;-80
2023/07/26 10:38:03;;;;;;;3.78;0.40;;;;;;;24.05;92.39;99356.81;7391868;19;20021;-79
2023/07/26 10:40:34;;;;;;;2.42;0.57;;;;;;;24.90;87.66;99351.81;7393446;19;20496;-79
2023/07/26 10:43:19;;;;;;;0.85;0.20;;;;;;;24.24;90.21;99349.78;7394080;19;20011;-79
2023/07/26 10:45:46;;;;;;;2.97;0.35;;;;;;;23.96;90.54;99348.13;7394048;19;20010;-79
2023/07/26 10:48:34;;;;;;;3.33;0.73;;;;;;;24.53;86.69;99340.22;7392256;19;20464;-79
2023/07/26 10:51:22;;;;;;;1.10;0.50;;;;;;;23.66;93.22;99346.25;7390340;19;20050;-79
2023/07/26 10:53:48;;;;;;;2.58;0.30;;;;;;;23.55;95.25;99349.53;7392685;19;20015;-79
2023/07/26 10:56:26;;;;;;;1.35;0.30;;;;;;;23.85;93.72;99343.66;7391055;19;20472;-78
2023/07/26 10:59:03;;;;;;;2.17;0.45;;;;;;;22.96;97.02;99334.28;7390127;19;20018;-79
2023/07/26 11:01:32;;;;;;;3.70;0.43;;;;;;;23.16;100.00;99336.84;7392410;19;20019;-79
2023/07/26 11:03:59;;;;;;;0.82;0.50;;;;;;;23.45;98.06;99340.13;7394247;19;20019;-79
2023/07/26 11:06:51;;;;;;;1.85;0.40;;;;;;;23.76;100.00;99332.91;7390611;19;20018;-79
2023/07/26 11:09:26;;;;;;;0.10;0.00;;;;;;;24.22;99.05;99324.00;7391201;19;20019;-79
2023/07/26 11:12:03;;;;;;;1.58;0.20;;;;;;;23.59;100.00;99332.84;7393365;19;20047;-79
2023/07/26 11:14:32;;;;;;;1.10;0.43;;;;;;;23.34;98.30;99327.13;7395030;19;20010;-78
2023/07/26 11:17:07;;;;;;;1.05;0.43;;;;;;;24.27;92.30;99320.19;7392319;19;20018;-78
2023/07/26 11:19:46;;;;;;;0.65;0.30;;;;;;;24.52;93.02;99320.88;7395604;19;20094;-78
2023/07/26 11:22:12;;;;;;;0.50;0.10;;;;;;;24.51;91.53;99317.28;7391153;19;20011;-78
2023/07/26 11:24:38;;;;;;;1.77;0.22;;;;;;;25.87;85.63;99314.75;7395085;19;20042;-79
2023/07/26 11:27:06;;;;;;;0.90;0.30;;;;;;;25.02;90.36;99307.97;7391346;19;20019;-80